createdAt,value
2023-03-15T00:02:07.127Z,100.00
2023-03-15T00:04:34.950Z,99.63
2023-03-15T00:07:03.530Z,100.00
2023-03-15T00:09:31.187Z,100.00
2023-03-15T00:11:59.251Z,100.00
2023-03-15T00:14:26.939Z,99.10
2023-03-15T00:16:55.053Z,100.00
2023-03-15T00:19:22.768Z,100.00
2023-03-15T00:21:50.789Z,100.00
2023-03-15T00:24:18.548Z,100.00
2023-03-15T00:26:46.648Z,100.00
2023-03-15T00:29:14.398Z,100.00
2023-03-15T00:31:42.455Z,100.00
2023-03-15T00:34:10.098Z,100.00
2023-03-15T00:36:39.119Z,100.00
2023-03-15T00:39:07.082Z,100.00
2023-03-15T00:41:35.459Z,100.00
2023-03-15T00:44:04.608Z,100.00
2023-03-15T00:46:32.974Z,100.00
2023-03-15T00:49:00.970Z,100.00
2023-03-15T00:51:29.128Z,100.00
2023-03-15T00:53:56.935Z,100.00
2023-03-15T00:56:26.507Z,100.00
2023-03-15T00:58:54.222Z,100.00
2023-03-15T01:01:24.693Z,100.00
2023-03-15T01:03:52.764Z,100.00
2023-03-15T01:06:22.272Z,100.00
2023-03-15T01:08:51.894Z,100.00
2023-03-15T01:11:22.483Z,100.00
2023-03-15T01:13:54.093Z,100.00
2023-03-15T01:16:22.067Z,100.00
2023-03-15T01:18:51.941Z,100.00
2023-03-15T01:21:21.507Z,100.00
2023-03-15T01:23:49.017Z,100.00
2023-03-15T01:26:17.452Z,100.00
2023-03-15T01:28:45.130Z,99.47
2023-03-15T01:31:23.828Z,100.00
2023-03-15T01:33:51.800Z,100.00
2023-03-15T01:36:20.372Z,98.95
2023-03-15T01:38:49.986Z,98.45
2023-03-15T01:41:21.825Z,99.05
2023-03-15T01:43:49.376Z,100.00
2023-03-15T01:46:29.289Z,100.00
2023-03-15T01:49:23.073Z,100.00
2023-03-15T01:51:57.297Z,100.00
2023-03-15T01:54:29.157Z,99.16
2023-03-15T01:57:09.582Z,99.13
2023-03-15T01:59:43.588Z,98.58
2023-03-15T02:02:15.210Z,99.13
2023-03-15T02:04:47.354Z,98.16
2023-03-15T02:07:18.534Z,98.41
2023-03-15T02:10:01.804Z,98.94
2023-03-15T02:12:33.163Z,98.18
2023-03-15T02:15:03.022Z,99.23
2023-03-15T02:17:37.098Z,99.48
2023-03-15T02:20:15.855Z,98.50
2023-03-15T02:22:49.845Z,98.33
2023-03-15T02:25:23.554Z,99.24
2023-03-15T02:27:52.000Z,99.85
2023-03-15T02:30:19.669Z,99.49
2023-03-15T02:32:47.761Z,99.71
2023-03-15T02:35:23.714Z,100.00
2023-03-15T02:37:54.770Z,99.60
2023-03-15T02:40:23.474Z,99.91
2023-03-15T02:42:53.468Z,98.58
2023-03-15T02:45:21.766Z,99.49
2023-03-15T02:47:51.937Z,99.18
2023-03-15T02:50:19.991Z,99.35
2023-03-15T02:52:48.011Z,98.31
2023-03-15T02:55:15.561Z,95.96
2023-03-15T02:57:43.665Z,97.43
2023-03-15T03:00:14.647Z,96.97
2023-03-15T03:02:45.789Z,98.70
2023-03-15T03:05:14.246Z,96.45
2023-03-15T03:07:45.465Z,97.00
2023-03-15T03:10:15.902Z,94.71
2023-03-15T03:12:53.865Z,94.91
2023-03-15T03:15:28.310Z,96.23
2023-03-15T03:17:56.160Z,99.14
2023-03-15T03:20:24.560Z,98.60
2023-03-15T03:22:52.467Z,98.66
2023-03-15T03:25:19.977Z,99.51
2023-03-15T03:27:48.967Z,100.00
2023-03-15T03:30:17.065Z,100.00
2023-03-15T03:32:50.938Z,100.00
2023-03-15T03:35:18.621Z,99.40
2023-03-15T03:37:46.482Z,98.94
2023-03-15T03:40:21.660Z,100.00
2023-03-15T03:42:49.752Z,100.00
2023-03-15T03:45:19.972Z,100.00
2023-03-15T03:47:51.944Z,100.00
2023-03-15T03:50:19.475Z,100.00
2023-03-15T03:52:47.394Z,100.00
2023-03-15T03:55:25.352Z,100.00
2023-03-15T03:57:54.531Z,100.00
2023-03-15T04:00:38.481Z,100.00
2023-03-15T04:03:08.238Z,100.00
2023-03-15T04:05:38.030Z,99.50
2023-03-15T04:08:05.953Z,98.58
2023-03-15T04:10:38.572Z,98.80
2023-03-15T04:13:06.754Z,98.76
2023-03-15T04:15:34.450Z,98.33
2023-03-15T04:18:06.075Z,99.82
2023-03-15T04:20:39.741Z,98.91
2023-03-15T04:23:07.641Z,98.41
2023-03-15T04:25:42.542Z,98.62
2023-03-15T04:28:30.476Z,97.41
2023-03-15T04:31:16.741Z,98.04
2023-03-15T04:34:17.250Z,98.02
2023-03-15T04:37:00.006Z,98.70
2023-03-15T04:39:37.268Z,98.53
2023-03-15T04:42:30.650Z,99.25
2023-03-15T04:45:19.378Z,97.34
2023-03-15T04:48:13.209Z,95.89
2023-03-15T04:50:50.536Z,98.66
2023-03-15T04:53:34.726Z,100.00
2023-03-15T04:56:15.583Z,99.87
2023-03-15T04:58:55.164Z,100.00
2023-03-15T05:01:41.580Z,100.00
2023-03-15T05:04:32.289Z,100.00
2023-03-15T05:07:26.379Z,100.00
2023-03-15T05:10:23.401Z,100.00
2023-03-15T05:13:09.639Z,100.00
2023-03-15T05:15:47.090Z,100.00
2023-03-15T05:18:34.152Z,100.00
2023-03-15T05:21:21.922Z,100.00
2023-03-15T05:24:08.497Z,100.00
2023-03-15T05:26:56.769Z,100.00
2023-03-15T05:29:43.687Z,100.00
2023-03-15T05:32:35.020Z,100.00
2023-03-15T05:35:18.907Z,100.00
2023-03-15T05:38:09.458Z,99.82
2023-03-15T05:41:07.029Z,99.26
2023-03-15T05:43:44.239Z,100.00
2023-03-15T05:46:38.280Z,99.88
2023-03-15T05:49:12.450Z,100.00
2023-03-15T05:52:03.522Z,100.00
2023-03-15T05:54:38.367Z,100.00
2023-03-15T05:57:21.233Z,100.00
2023-03-15T06:00:00.009Z,100.00
2023-03-15T06:02:44.215Z,100.00
2023-03-15T06:05:30.625Z,99.28
2023-03-15T06:08:02.724Z,100.00
2023-03-15T06:10:30.403Z,98.81
2023-03-15T06:13:01.283Z,98.95
2023-03-15T06:15:28.937Z,97.63
2023-03-15T06:17:57.696Z,98.61
2023-03-15T06:20:25.313Z,98.02
2023-03-15T06:22:53.599Z,98.36
2023-03-15T06:25:35.178Z,96.40
2023-03-15T06:28:03.281Z,95.85
2023-03-15T06:30:31.074Z,95.25
2023-03-15T06:33:01.989Z,94.90
2023-03-15T06:35:31.339Z,95.49
2023-03-15T06:37:59.267Z,93.97
2023-03-15T06:40:27.749Z,92.16
2023-03-15T06:42:55.717Z,89.80
2023-03-15T06:45:23.317Z,87.96
2023-03-15T06:47:51.395Z,83.27
2023-03-15T06:50:18.998Z,81.77
2023-03-15T06:52:46.889Z,82.43
2023-03-15T06:55:18.360Z,82.37
2023-03-15T06:57:46.785Z,82.86
2023-03-15T07:00:14.877Z,81.03
2023-03-15T07:02:42.825Z,80.72
2023-03-15T07:05:11.283Z,80.49
2023-03-15T07:07:39.151Z,81.12
2023-03-15T07:10:06.821Z,80.13
2023-03-15T07:12:34.677Z,81.33
2023-03-15T07:15:02.475Z,80.88
2023-03-15T07:17:30.359Z,81.35
2023-03-15T07:19:57.934Z,82.16
2023-03-15T07:22:26.772Z,80.27
2023-03-15T07:24:54.401Z,79.08
2023-03-15T07:27:22.392Z,78.88
2023-03-15T07:29:49.926Z,79.27
2023-03-15T07:32:17.929Z,79.31
2023-03-15T07:34:45.532Z,79.12
2023-03-15T07:37:13.426Z,78.33
2023-03-15T07:39:41.448Z,78.05
2023-03-15T07:42:09.502Z,78.24
2023-03-15T07:44:42.339Z,78.34
2023-03-15T07:47:10.378Z,78.43
2023-03-15T07:49:38.027Z,77.10
2023-03-15T07:52:05.992Z,76.40
2023-03-15T07:54:34.811Z,75.25
2023-03-15T07:57:02.734Z,74.97
2023-03-15T07:59:30.333Z,74.07
2023-03-15T08:01:59.624Z,73.86
2023-03-15T08:04:29.463Z,72.71
2023-03-15T08:06:57.437Z,72.67
2023-03-15T08:09:25.190Z,71.70
2023-03-15T08:11:54.417Z,71.42
2023-03-15T08:14:22.166Z,71.27
2023-03-15T08:16:50.419Z,69.90
2023-03-15T08:19:17.947Z,68.17
2023-03-15T08:21:45.808Z,66.73
2023-03-15T08:24:13.398Z,63.22
2023-03-15T08:26:43.798Z,63.45
2023-03-15T08:29:11.495Z,61.20
2023-03-15T08:31:39.600Z,60.92
2023-03-15T08:34:07.597Z,59.88
2023-03-15T08:36:35.535Z,58.69
2023-03-15T08:39:04.547Z,58.35
2023-03-15T08:41:32.498Z,58.90
2023-03-15T08:44:00.107Z,60.41
2023-03-15T08:46:28.296Z,60.83
2023-03-15T08:48:55.854Z,61.21
2023-03-15T08:51:25.666Z,61.00
2023-03-15T08:53:53.756Z,61.92
2023-03-15T08:56:21.785Z,62.33
2023-03-15T08:58:49.305Z,63.76
2023-03-15T09:01:17.548Z,64.16
2023-03-15T09:03:45.141Z,64.46
2023-03-15T09:06:13.720Z,63.05
2023-03-15T09:08:42.161Z,62.59
2023-03-15T09:11:10.692Z,63.19
2023-03-15T09:13:38.283Z,63.50
2023-03-15T09:16:06.395Z,64.62
2023-03-15T09:18:34.341Z,64.92
2023-03-15T09:21:02.488Z,62.61
2023-03-15T09:23:30.118Z,60.74
2023-03-15T09:25:57.993Z,60.11
2023-03-15T09:28:28.137Z,60.64
2023-03-15T09:30:56.588Z,60.27
2023-03-15T09:33:25.369Z,61.47
2023-03-15T09:35:53.484Z,60.45
2023-03-15T09:38:22.261Z,60.06
2023-03-15T09:40:50.562Z,60.48
2023-03-15T09:43:36.659Z,60.23
2023-03-15T09:46:07.581Z,58.90
2023-03-15T09:48:44.514Z,57.53
2023-03-15T09:51:16.296Z,58.35
2023-03-15T09:53:50.799Z,58.59
2023-03-15T09:56:31.277Z,57.04
2023-03-15T09:58:59.892Z,51.64
2023-03-15T10:01:38.604Z,43.30
2023-03-15T10:04:11.567Z,37.62
2023-03-15T10:06:46.238Z,36.76
2023-03-15T10:09:16.869Z,35.07
2023-03-15T10:11:45.565Z,34.23
2023-03-15T10:14:28.631Z,34.70
2023-03-15T10:16:56.566Z,30.45
2023-03-15T10:19:27.117Z,32.21
2023-03-15T10:21:59.286Z,31.53
2023-03-15T10:24:45.474Z,31.21
2023-03-15T10:27:33.633Z,29.88
2023-03-15T10:30:02.568Z,29.52
2023-03-15T10:32:35.183Z,31.22
2023-03-15T10:35:02.916Z,30.56
2023-03-15T10:37:30.741Z,30.82
2023-03-15T10:39:59.836Z,32.92
2023-03-15T10:42:29.254Z,32.91
2023-03-15T10:44:56.992Z,34.64
2023-03-15T10:47:26.239Z,30.36
2023-03-15T10:49:57.806Z,32.44
2023-03-15T10:52:37.082Z,36.50
2023-03-15T10:55:07.950Z,34.89
2023-03-15T10:57:39.317Z,35.91
2023-03-15T11:00:26.264Z,35.23
2023-03-15T11:03:03.398Z,34.05
2023-03-15T11:05:44.667Z,32.81
2023-03-15T11:08:23.213Z,31.41
2023-03-15T11:11:00.413Z,33.36
2023-03-15T11:13:30.087Z,35.06
2023-03-15T11:16:15.783Z,32.86
2023-03-15T11:18:46.833Z,37.66
2023-03-15T11:21:15.357Z,41.05
2023-03-15T11:23:44.479Z,43.38
2023-03-15T11:26:31.507Z,46.79
2023-03-15T11:29:02.213Z,50.18
2023-03-15T11:31:31.401Z,48.08
2023-03-15T11:34:14.349Z,45.17
2023-03-15T11:36:44.289Z,44.17
2023-03-15T11:39:14.400Z,44.78
2023-03-15T11:41:48.837Z,49.36
2023-03-15T11:44:29.327Z,48.80
2023-03-15T11:47:20.169Z,49.86
2023-03-15T11:49:51.033Z,49.79
2023-03-15T11:52:20.027Z,48.99
2023-03-15T11:54:48.024Z,47.02
2023-03-15T11:57:34.304Z,47.00
2023-03-15T12:00:17.854Z,47.37
2023-03-15T12:02:56.346Z,47.46
2023-03-15T12:05:42.919Z,46.89
2023-03-15T12:08:25.413Z,47.50
2023-03-15T12:10:53.642Z,48.96
2023-03-15T12:13:25.889Z,49.45
2023-03-15T12:15:53.934Z,50.63
2023-03-15T12:18:22.781Z,51.53
2023-03-15T12:20:53.291Z,52.25
2023-03-15T12:23:34.081Z,51.44
2023-03-15T12:26:02.072Z,52.01
2023-03-15T12:28:41.725Z,51.05
2023-03-15T12:31:13.380Z,50.65
2023-03-15T12:33:46.299Z,50.36
2023-03-15T12:36:36.470Z,49.73
2023-03-15T12:39:21.286Z,48.96
2023-03-15T12:41:50.523Z,50.93
2023-03-15T12:44:33.374Z,49.60
2023-03-15T12:47:05.985Z,49.04
2023-03-15T12:49:38.189Z,51.11
2023-03-15T12:52:12.305Z,48.72
2023-03-15T12:54:43.156Z,47.23
2023-03-15T12:57:13.257Z,46.62
2023-03-15T12:59:50.880Z,48.95
2023-03-15T13:02:19.431Z,46.58
2023-03-15T13:04:49.969Z,47.81
2023-03-15T13:07:23.798Z,46.41
2023-03-15T13:10:13.308Z,48.35
2023-03-15T13:13:00.418Z,48.91
2023-03-15T13:15:33.193Z,47.10
2023-03-15T13:18:05.286Z,45.11
2023-03-15T13:20:38.950Z,43.51
2023-03-15T13:23:17.778Z,46.63
2023-03-15T13:25:51.647Z,46.36
2023-03-15T13:28:29.182Z,46.54
2023-03-15T13:30:57.085Z,44.76
2023-03-15T13:33:29.343Z,44.71
2023-03-15T13:35:57.042Z,44.87
2023-03-15T13:38:25.020Z,46.01
2023-03-15T13:40:53.331Z,44.45
2023-03-15T13:43:24.778Z,45.51
2023-03-15T13:45:52.340Z,45.29
2023-03-15T13:48:20.128Z,44.67
2023-03-15T13:50:50.769Z,43.53
2023-03-15T13:53:35.639Z,42.69
2023-03-15T13:56:16.172Z,42.47
2023-03-15T13:58:44.102Z,41.36
2023-03-15T14:01:13.162Z,42.45
2023-03-15T14:03:43.498Z,38.32
2023-03-15T14:06:21.974Z,39.04
2023-03-15T14:08:54.852Z,38.04
2023-03-15T14:11:25.211Z,36.10
2023-03-15T14:13:54.266Z,37.70
2023-03-15T14:16:53.294Z,37.97
2023-03-15T14:19:30.411Z,34.69
2023-03-15T14:21:59.292Z,33.04
2023-03-15T14:24:31.309Z,31.44
2023-03-15T14:27:00.787Z,31.68
2023-03-15T14:29:36.016Z,30.97
2023-03-15T14:32:08.576Z,28.56
2023-03-15T14:34:46.517Z,28.71
2023-03-15T14:37:32.535Z,30.15
2023-03-15T14:40:21.191Z,30.39
2023-03-15T14:42:49.917Z,31.73
2023-03-15T14:45:18.642Z,29.71
2023-03-15T14:47:56.915Z,27.17
2023-03-15T14:50:31.094Z,23.58
2023-03-15T14:52:59.264Z,22.23
2023-03-15T14:55:35.147Z,21.25
2023-03-15T14:58:03.780Z,21.32
2023-03-15T15:00:32.790Z,22.50
2023-03-15T15:03:00.455Z,21.30
2023-03-15T15:05:30.571Z,21.00
2023-03-15T15:08:02.871Z,21.73
2023-03-15T15:10:31.110Z,22.41
2023-03-15T15:13:06.030Z,24.34
2023-03-15T15:15:53.519Z,24.08
2023-03-15T15:18:23.159Z,25.45
2023-03-15T15:20:55.691Z,26.07
2023-03-15T15:23:25.852Z,26.29
2023-03-15T15:25:56.110Z,27.00
2023-03-15T15:28:33.855Z,30.33
2023-03-15T15:31:02.826Z,31.71
2023-03-15T15:33:30.558Z,33.13
2023-03-15T15:35:58.579Z,33.78
2023-03-15T15:38:39.133Z,30.89
2023-03-15T15:41:13.320Z,29.85
2023-03-15T15:43:41.242Z,30.89
2023-03-15T15:46:10.277Z,31.71
2023-03-15T15:48:38.189Z,31.06
2023-03-15T15:51:18.842Z,32.12
2023-03-15T15:53:46.481Z,32.48
2023-03-15T15:56:14.388Z,32.52
2023-03-15T15:58:42.931Z,32.87
2023-03-15T16:01:12.661Z,32.07
2023-03-15T16:03:40.837Z,32.36
2023-03-15T16:06:17.950Z,31.75
2023-03-15T16:08:46.906Z,32.49
2023-03-15T16:11:16.398Z,32.46
2023-03-15T16:13:46.048Z,33.11
2023-03-15T16:16:15.661Z,33.15
2023-03-15T16:18:43.948Z,32.42
2023-03-15T16:21:33.819Z,34.08
2023-03-15T16:24:06.622Z,34.21
2023-03-15T16:26:36.797Z,34.98
2023-03-15T16:29:12.956Z,35.60
2023-03-15T16:31:40.901Z,37.65
2023-03-15T16:34:12.007Z,38.87
2023-03-15T16:36:48.516Z,39.34
2023-03-15T16:39:16.778Z,40.88
2023-03-15T16:41:46.100Z,40.76
2023-03-15T16:44:14.726Z,40.77
2023-03-15T16:46:42.793Z,41.05
2023-03-15T16:49:10.679Z,40.98
2023-03-15T16:51:40.545Z,40.92
2023-03-15T16:54:19.658Z,40.32
2023-03-15T16:56:52.500Z,41.98
2023-03-15T16:59:20.406Z,42.79
2023-03-15T17:01:49.600Z,43.27
2023-03-15T17:04:17.208Z,43.66
2023-03-15T17:06:46.163Z,45.12
2023-03-15T17:09:21.617Z,44.78
2023-03-15T17:11:52.343Z,46.12
2023-03-15T17:14:23.431Z,46.62
2023-03-15T17:16:51.749Z,46.85
2023-03-15T17:19:19.298Z,47.41
2023-03-15T17:21:47.481Z,47.00
2023-03-15T17:24:15.337Z,47.95
2023-03-15T17:26:44.544Z,47.39
2023-03-15T17:29:16.203Z,47.58
2023-03-15T17:31:44.820Z,47.82
2023-03-15T17:34:12.569Z,48.58
2023-03-15T17:36:41.606Z,48.47
2023-03-15T17:39:14.607Z,48.98
2023-03-15T17:41:47.987Z,50.26
2023-03-15T17:44:15.621Z,50.56
2023-03-15T17:46:43.862Z,50.64
2023-03-15T17:49:13.506Z,50.73
2023-03-15T17:51:41.587Z,51.16
2023-03-15T17:54:13.847Z,52.33
2023-03-15T17:56:42.003Z,52.57
2023-03-15T17:59:12.020Z,54.12
2023-03-15T18:01:46.629Z,55.05
2023-03-15T18:04:15.048Z,54.50
2023-03-15T18:06:43.498Z,54.65
2023-03-15T18:09:12.211Z,55.32
2023-03-15T18:11:42.760Z,54.92
2023-03-15T18:14:11.972Z,54.35
2023-03-15T18:16:40.356Z,54.84
2023-03-15T18:19:08.026Z,54.88
2023-03-15T18:21:35.864Z,55.70
2023-03-15T18:24:03.670Z,56.64
2023-03-15T18:26:31.544Z,56.30
2023-03-15T18:28:59.292Z,56.78
2023-03-15T18:31:27.284Z,57.08
2023-03-15T18:33:55.281Z,56.90
2023-03-15T18:36:23.509Z,57.42
2023-03-15T18:38:51.528Z,57.81
2023-03-15T18:41:21.382Z,57.38
2023-03-15T18:43:50.360Z,57.17
2023-03-15T18:46:27.696Z,57.38
2023-03-15T18:48:55.427Z,57.99
2023-03-15T18:51:25.854Z,58.29
2023-03-15T18:53:53.919Z,58.67
2023-03-15T18:56:23.423Z,59.06
2023-03-15T18:58:52.558Z,59.26
2023-03-15T19:01:24.865Z,59.24
2023-03-15T19:03:53.036Z,58.96
2023-03-15T19:06:21.595Z,59.00
2023-03-15T19:08:53.589Z,58.78
2023-03-15T19:11:24.128Z,57.94
2023-03-15T19:13:51.803Z,58.54
2023-03-15T19:16:23.252Z,58.57
2023-03-15T19:18:51.838Z,58.94
2023-03-15T19:21:19.912Z,60.12
2023-03-15T19:23:47.892Z,59.23
2023-03-15T19:26:15.911Z,59.54
2023-03-15T19:28:43.844Z,59.76
2023-03-15T19:31:11.956Z,59.55
2023-03-15T19:33:39.645Z,60.29
2023-03-15T19:36:08.132Z,59.89
2023-03-15T19:38:35.858Z,60.56
2023-03-15T19:41:07.794Z,59.67
2023-03-15T19:43:38.012Z,59.89
2023-03-15T19:46:08.211Z,60.95
2023-03-15T19:48:36.149Z,60.96
2023-03-15T19:51:04.705Z,61.30
2023-03-15T19:53:32.523Z,61.34
2023-03-15T19:56:04.358Z,61.50
2023-03-15T19:58:32.440Z,61.39
2023-03-15T20:01:00.393Z,60.37
2023-03-15T20:03:27.953Z,60.81
2023-03-15T20:05:56.330Z,60.72
2023-03-15T20:08:26.272Z,60.21
2023-03-15T20:11:01.755Z,60.50
2023-03-15T20:13:29.229Z,60.56
2023-03-15T20:15:59.367Z,59.65
2023-03-15T20:18:28.702Z,59.96
2023-03-15T20:20:57.889Z,60.09
2023-03-15T20:23:27.189Z,59.41
2023-03-15T20:26:06.275Z,59.65
2023-03-15T20:28:34.050Z,59.06
2023-03-15T20:31:05.824Z,59.67
2023-03-15T20:33:33.951Z,60.08
2023-03-15T20:36:02.726Z,59.93
2023-03-15T20:38:30.842Z,59.68
2023-03-15T20:41:00.416Z,59.41
2023-03-15T20:43:28.380Z,59.79
2023-03-15T20:46:00.092Z,59.81
2023-03-15T20:48:29.545Z,59.74
2023-03-15T20:51:04.128Z,60.98
2023-03-15T20:53:33.206Z,61.46
2023-03-15T20:56:02.423Z,61.26
2023-03-15T20:58:31.132Z,61.76
2023-03-15T21:01:15.162Z,61.73
2023-03-15T21:03:44.586Z,62.52
2023-03-15T21:06:13.273Z,62.67
2023-03-15T21:08:46.138Z,62.68
2023-03-15T21:11:14.561Z,63.11
2023-03-15T21:13:42.296Z,62.79
2023-03-15T21:16:12.226Z,63.18
2023-03-15T21:18:39.880Z,63.33
2023-03-15T21:21:08.877Z,64.13
2023-03-15T21:23:36.444Z,63.48
2023-03-15T21:26:06.649Z,63.55
2023-03-15T21:28:34.241Z,63.09
2023-03-15T21:31:02.611Z,62.26
2023-03-15T21:33:31.642Z,61.49
2023-03-15T21:36:00.131Z,62.36
2023-03-15T21:38:28.439Z,62.37
2023-03-15T21:41:00.070Z,62.36
2023-03-15T21:43:29.055Z,62.81
2023-03-15T21:46:01.673Z,62.79
2023-03-15T21:48:29.901Z,63.26
2023-03-15T21:50:58.215Z,62.93
2023-03-15T21:53:25.835Z,63.49
2023-03-15T21:55:55.752Z,64.11
2023-03-15T21:58:23.667Z,62.88
2023-03-15T22:00:59.413Z,52.08
2023-03-15T22:03:27.586Z,48.92
2023-03-15T22:05:56.126Z,49.58
2023-03-15T22:08:24.447Z,48.96
2023-03-15T22:10:55.958Z,48.79
2023-03-15T22:13:23.973Z,46.56
2023-03-15T22:15:55.508Z,43.02
2023-03-15T22:18:23.408Z,40.17
2023-03-15T22:20:51.613Z,40.74
2023-03-15T22:23:19.196Z,39.98
2023-03-15T22:25:47.067Z,39.15
2023-03-15T22:28:14.992Z,39.08
2023-03-15T22:30:43.870Z,38.77
2023-03-15T22:33:12.313Z,39.40
2023-03-15T22:35:40.658Z,37.65
2023-03-15T22:38:11.416Z,37.59
2023-03-15T22:40:40.808Z,38.15
2023-03-15T22:43:09.217Z,38.14
2023-03-15T22:45:37.375Z,38.39
2023-03-15T22:48:05.186Z,37.84
2023-03-15T22:50:33.147Z,36.76
2023-03-15T22:53:01.053Z,35.91
2023-03-15T22:55:29.184Z,36.56
2023-03-15T22:57:57.479Z,36.84
2023-03-15T23:00:27.056Z,37.16
2023-03-15T23:02:56.354Z,37.87
2023-03-15T23:05:25.657Z,38.20
2023-03-15T23:07:53.417Z,37.74
2023-03-15T23:10:21.438Z,39.03
2023-03-15T23:12:48.943Z,39.57
2023-03-15T23:15:16.968Z,39.88
2023-03-15T23:17:46.874Z,40.37
2023-03-15T23:20:16.806Z,40.08
2023-03-15T23:22:45.010Z,39.75
2023-03-15T23:25:14.236Z,39.36
2023-03-15T23:27:41.890Z,37.39
2023-03-15T23:30:10.661Z,36.52
2023-03-15T23:32:38.166Z,36.47
2023-03-15T23:35:08.325Z,36.76
2023-03-15T23:37:36.062Z,36.34
2023-03-15T23:40:09.786Z,37.10
2023-03-15T23:42:37.856Z,38.34
2023-03-15T23:45:06.109Z,37.97
2023-03-15T23:47:33.719Z,36.60
2023-03-15T23:50:02.725Z,37.01
2023-03-15T23:52:30.943Z,37.37
2023-03-15T23:54:58.711Z,36.93
2023-03-15T23:57:26.273Z,36.01
2023-03-15T23:59:54.119Z,34.58
